Time;durP1;ratioP1;P1;durP2;ratioP2;P2;SDS_P1;SDS_P2;PMS_P1;PMS_P2;Temp;Humidity;BMP_temperature;BMP_pressure;BME280_temperature;BME280_humidity;BME280_pressure;Samples;Min_cycle;Max_cycle;Signal;HPM_P1;HPM_P2
2024/02/11 00:01:08;;;;;;;25.55;16.98;;;;;;;-146.27;94.16;41052.94;5070045;28;20095;-72
2024/02/11 00:03:35;;;;;;;27.10;17.55;;;;;;;-146.27;94.10;41048.97;5077154;28;20489;-71
2024/02/11 00:06:04;;;;;;;25.45;17.13;;;;;;;-146.27;94.24;41029.06;5070815;28;20036;-72
2024/02/11 00:08:30;;;;;;;27.73;18.20;;;;;;;-146.27;94.46;41031.06;5063860;28;20068;-72
2024/02/11 00:10:55;;;;;;;26.02;17.52;;;;;;;-146.27;94.23;41029.06;5070990;28;20074;-71
2024/02/11 00:13:21;;;;;;;27.65;18.65;;;;;;;-146.27;94.26;41039.00;5068586;28;20017;-72
2024/02/11 00:15:47;;;;;;;26.58;16.48;;;;;;;-146.27;94.25;41025.09;5070159;28;20032;-72
2024/02/11 00:18:12;;;;;;;27.48;18.10;;;;;;;-146.27;94.19;40997.28;5067535;28;20090;-72
2024/02/11 00:20:39;;;;;;;25.83;18.65;;;;;;;-146.27;94.01;41044.97;5068157;28;20465;-72
2024/02/11 00:23:04;;;;;;;25.92;17.17;;;;;;;-146.27;94.19;41031.06;5069628;28;20047;-72
2024/02/11 00:25:30;;;;;;;26.58;16.90;;;;;;;-146.27;94.21;41046.97;5067375;28;20115;-72
2024/02/11 00:27:58;;;;;;;28.13;18.13;;;;;;;-146.27;94.05;41052.94;5067529;28;20024;-72
2024/02/11 00:30:24;;;;;;;30.38;18.25;;;;;;;-146.27;94.07;41033.06;5068182;28;20044;-72
2024/02/11 00:32:51;;;;;;;31.25;18.30;;;;;;;-146.27;94.12;41064.84;5082321;28;20028;-71
2024/02/11 00:35:17;;;;;;;28.05;17.25;;;;;;;-146.27;94.26;41044.97;5069839;28;20043;-71
2024/02/11 00:37:43;;;;;;;30.65;18.70;;;;;;;-146.27;94.22;41056.91;5069530;28;20032;-70
2024/02/11 00:40:12;;;;;;;26.90;16.83;;;;;;;-146.27;94.35;41019.13;5069069;28;20044;-72
2024/02/11 00:42:38;;;;;;;29.38;18.50;;;;;;;-146.27;94.19;41037.03;5061711;28;20519;-74
2024/02/11 00:45:04;;;;;;;30.80;18.60;;;;;;;-146.27;94.19;41029.06;5065431;28;20028;-72
2024/02/11 00:47:29;;;;;;;30.42;18.75;;;;;;;-146.27;94.09;41037.03;5068528;28;20032;-73
2024/02/11 00:49:55;;;;;;;35.70;19.23;;;;;;;-146.27;94.16;41029.06;5068679;28;20372;-71
2024/02/11 00:52:21;;;;;;;31.35;18.77;;;;;;;-146.27;94.24;41005.22;5068749;28;20446;-72
2024/02/11 00:54:46;;;;;;;28.58;18.88;;;;;;;-146.27;94.20;40987.31;5068735;28;20036;-72
2024/02/11 00:57:12;;;;;;;30.48;19.17;;;;;;;-146.27;94.45;40985.34;5074822;28;20024;-72
2024/02/11 00:59:40;;;;;;;32.17;19.58;;;;;;;-146.27;94.21;40985.34;5068374;28;20037;-71
2024/02/11 01:02:06;;;;;;;28.70;17.85;;;;;;;-146.27;94.28;40991.31;5069691;28;20025;-71
2024/02/11 01:04:32;;;;;;;31.33;18.90;;;;;;;-146.27;94.15;41007.22;5068383;28;20032;-70
2024/02/11 01:06:58;;;;;;;30.83;19.40;;;;;;;-146.27;94.25;40985.34;5068269;28;20078;-72
2024/02/11 01:09:25;;;;;;;31.83;18.77;;;;;;;-146.27;94.72;40963.47;5068314;28;20024;-71
2024/02/11 01:11:50;;;;;;;32.42;19.27;;;;;;;-146.27;94.50;40957.50;5068967;28;20116;-70
2024/02/11 01:14:18;;;;;;;34.00;19.45;;;;;;;-146.27;94.51;40937.63;5069472;28;20575;-71
2024/02/11 01:16:44;;;;;;;30.05;18.10;;;;;;;-146.27;94.47;40913.78;5068341;28;20039;-71
2024/02/11 01:19:10;;;;;;;29.92;19.60;;;;;;;-146.27;94.56;40921.72;5067653;28;20103;-71
2024/02/11 01:21:36;;;;;;;33.33;20.52;;;;;;;-146.27;94.82;40929.69;5068561;28;20397;-71
2024/02/11 01:24:01;;;;;;;31.48;19.45;;;;;;;-146.27;94.66;40907.81;5066522;28;20028;-71
2024/02/11 01:26:27;;;;;;;33.38;19.65;;;;;;;-146.27;94.67;40862.09;5067881;28;20032;-71
2024/02/11 01:28:52;;;;;;;32.45;20.08;;;;;;;-146.27;94.67;40878.00;5069189;28;20565;-71
2024/02/11 01:31:18;;;;;;;30.98;19.90;;;;;;;-146.27;94.66;40913.78;5080037;28;20429;-70
2024/02/11 01:33:43;;;;;;;30.38;18.50;;;;;;;-146.27;94.73;40858.09;5072410;28;20036;-71
2024/02/11 01:36:11;;;;;;;34.28;20.45;;;;;;;-146.27;94.62;40812.38;5066061;28;20021;-70
2024/02/11 01:38:38;;;;;;;34.67;21.25;;;;;;;-146.27;94.73;40846.19;5059120;28;20037;-69
2024/02/11 01:41:03;;;;;;;32.90;20.58;;;;;;;-146.27;94.88;40818.34;5066966;28;20025;-70
2024/02/11 01:43:29;;;;;;;35.92;21.95;;;;;;;-146.27;94.78;40836.25;5069274;28;20032;-70
2024/02/11 01:45:56;;;;;;;34.53;20.83;;;;;;;-146.27;94.75;40854.13;5069629;28;20029;-72
2024/02/11 01:48:22;;;;;;;34.28;20.63;;;;;;;-146.27;94.78;40838.22;5068502;28;20024;-70
2024/02/11 01:50:52;;;;;;;34.85;19.95;;;;;;;-146.27;94.78;40836.25;5059655;28;20029;-70
2024/02/11 01:53:20;;;;;;;31.35;19.88;;;;;;;-146.27;94.82;40840.22;5050300;28;20458;-70
2024/02/11 01:55:46;;;;;;;33.92;19.33;;;;;;;-146.27;94.73;40826.31;5068015;28;20131;-69
2024/02/11 01:58:14;;;;;;;32.25;20.92;;;;;;;-146.27;94.88;40838.22;5068302;28;20408;-70
2024/02/11 02:00:41;;;;;;;35.05;21.38;;;;;;;-146.27;94.67;40840.22;5068650;28;20031;-73
2024/02/11 02:03:07;;;;;;;33.92;21.55;;;;;;;-146.27;94.59;40846.19;5067743;28;20430;-70
2024/02/11 02:05:33;;;;;;;33.63;20.80;;;;;;;-146.27;94.59;40854.13;5070406;28;20035;-70
2024/02/11 02:07:59;;;;;;;33.50;21.27;;;;;;;-146.27;94.59;40796.47;5074023;28;20460;-72
2024/02/11 02:10:25;;;;;;;34.72;20.98;;;;;;;-146.27;94.94;40826.31;5062049;28;20056;-71
2024/02/11 02:12:50;;;;;;;32.97;21.25;;;;;;;-146.27;94.97;40776.59;5074413;28;20209;-71
2024/02/11 02:15:16;;;;;;;31.88;20.33;;;;;;;-146.27;94.88;40758.72;5072137;28;20082;-71
2024/02/11 02:17:45;;;;;;;37.63;21.85;;;;;;;-146.27;95.01;40742.81;5072295;28;20051;-72
2024/02/11 02:20:11;;;;;;;31.48;20.13;;;;;;;-146.27;95.03;40711.00;5070704;28;20400;-71
2024/02/11 02:22:36;;;;;;;36.90;23.10;;;;;;;-146.27;95.14;40760.69;5070778;28;20053;-71
2024/02/11 02:25:02;;;;;;;33.78;20.38;;;;;;;-146.27;95.21;40748.78;5071307;28;20020;-71
2024/02/11 02:27:27;;;;;;;33.63;21.17;;;;;;;-146.27;95.22;40732.88;5070845;28;20039;-71
2024/02/11 02:29:53;;;;;;;37.95;21.58;;;;;;;-146.27;95.29;40714.97;5071301;28;20029;-71
2024/02/11 02:32:18;;;;;;;35.75;21.85;;;;;;;-146.27;95.28;40687.16;5071969;28;20465;-72
2024/02/11 02:34:44;;;;;;;34.80;22.35;;;;;;;-146.27;95.31;40701.06;5072142;28;20484;-71
2024/02/11 02:37:09;;;;;;;38.78;23.63;;;;;;;-146.27;95.56;40647.41;5073077;28;20035;-72
2024/02/11 02:39:37;;;;;;;40.72;22.58;;;;;;;-146.27;95.45;40659.31;5070698;28;20043;-71
2024/02/11 02:42:03;;;;;;;36.97;22.42;;;;;;;-146.27;95.46;40621.56;5071807;28;20039;-73
2024/02/11 02:44:30;;;;;;;39.05;23.08;;;;;;;-146.27;95.77;40599.69;5071393;28;20032;-72
2024/02/11 02:46:56;;;;;;;38.55;22.90;;;;;;;-146.27;95.50;40589.75;5072330;28;20485;-72
2024/02/11 02:49:21;;;;;;;37.30;22.13;;;;;;;-146.27;95.51;40607.63;5068561;28;20043;-72
2024/02/11 02:51:46;;;;;;;40.08;23.02;;;;;;;-146.27;95.53;40607.63;5070901;28;20035;-72
2024/02/11 02:54:14;;;;;;;44.47;24.05;;;;;;;-146.27;95.49;40599.69;5067937;28;20484;-70
2024/02/11 02:56:40;;;;;;;40.92;24.02;;;;;;;-146.27;95.56;40577.81;5072011;28;20400;-71
2024/02/11 02:59:08;;;;;;;44.25;24.48;;;;;;;-146.27;95.63;40557.94;5068584;28;20046;-71
2024/02/11 03:01:35;;;;;;;38.50;23.17;;;;;;;-146.27;95.63;40575.84;5070984;28;20384;-72
2024/02/11 03:04:01;;;;;;;44.13;25.45;;;;;;;-146.27;95.45;40583.78;5064756;28;20087;-71
2024/02/11 03:06:28;;;;;;;39.92;24.77;;;;;;;-146.27;95.66;40575.84;5069161;28;20028;-71
2024/02/11 03:08:53;;;;;;;40.05;24.00;;;;;;;-146.27;95.46;40565.91;5077194;28;20031;-72
2024/02/11 03:11:19;;;;;;;35.47;23.75;;;;;;;-146.27;95.47;40571.84;5071452;28;20029;-71
2024/02/11 03:13:44;;;;;;;42.75;23.50;;;;;;;-146.27;95.59;40553.97;5073269;28;20066;-71
2024/02/11 03:16:10;;;;;;;42.53;25.55;;;;;;;-146.27;95.53;40544.03;5071052;28;20025;-72
2024/02/11 03:18:36;;;;;;;42.50;25.50;;;;;;;-146.27;95.60;40563.91;5071301;28;20032;-72
2024/02/11 03:21:02;;;;;;;39.95;23.63;;;;;;;-146.27;95.55;40536.06;5069799;28;20123;-72
2024/02/11 03:23:27;;;;;;;42.22;24.65;;;;;;;-146.27;95.56;40528.13;5069750;28;20078;-72
2024/02/11 03:25:52;;;;;;;45.22;26.50;;;;;;;-146.27;95.78;40528.13;5078142;28;20369;-72
2024/02/11 03:28:18;;;;;;;43.05;25.02;;;;;;;-146.27;95.76;40504.28;5071330;28;20519;-71
2024/02/11 03:30:43;;;;;;;41.30;25.60;;;;;;;-146.27;95.75;40540.06;5075160;28;20032;-72
2024/02/11 03:33:08;;;;;;;44.60;26.80;;;;;;;-146.27;95.78;40500.31;5068037;28;20016;-72
2024/02/11 03:35:34;;;;;;;44.75;26.02;;;;;;;-146.27;95.86;40510.25;5071474;28;20036;-70
2024/02/11 03:37:59;;;;;;;46.08;27.58;;;;;;;-146.27;95.92;40484.41;5071744;28;20032;-72
2024/02/11 03:40:26;;;;;;;46.15;26.25;;;;;;;-146.27;95.98;40476.44;5070971;28;20048;-71
2024/02/11 03:42:52;;;;;;;42.72;27.30;;;;;;;-146.27;96.01;40434.69;5067240;28;20271;-72
2024/02/11 03:45:18;;;;;;;45.30;27.45;;;;;;;-146.27;96.03;40452.59;5071137;28;20062;-72
2024/02/11 03:47:44;;;;;;;43.28;26.73;;;;;;;-146.27;96.06;40440.66;5071093;28;20158;-70
2024/02/11 03:50:10;;;;;;;43.53;26.45;;;;;;;-146.27;95.98;40385.00;5058839;28;20021;-74
2024/02/11 03:52:37;;;;;;;52.47;26.63;;;;;;;-146.27;95.83;40404.88;5070842;28;20638;-72
2024/02/11 03:55:05;;;;;;;44.78;27.40;;;;;;;-146.27;95.85;40404.88;5071850;28;20115;-72
2024/02/11 03:57:31;;;;;;;43.33;26.73;;;;;;;-146.27;95.88;40365.13;5070317;28;20493;-72
2024/02/11 03:59:57;;;;;;;39.67;25.05;;;;;;;-146.27;95.96;40379.03;5060981;28;20052;-72
2024/02/11 04:02:22;;;;;;;45.58;28.00;;;;;;;-146.27;96.20;40379.03;5070402;28;20028;-70
2024/02/11 04:04:49;;;;;;;47.95;27.10;;;;;;;-146.27;96.07;40351.22;5070423;28;20024;-71
2024/02/11 04:07:15;;;;;;;43.45;26.08;;;;;;;-146.27;96.05;40361.16;5069707;28;20481;-72
2024/02/11 04:09:40;;;;;;;47.15;27.73;;;;;;;-146.27;95.88;40333.34;5068776;28;20035;-71
2024/02/11 04:12:09;;;;;;;46.03;26.45;;;;;;;-146.27;96.14;40347.25;5068675;28;20036;-72
2024/02/11 04:14:41;;;;;;;43.22;26.92;;;;;;;-146.27;96.31;40333.34;5069359;28;20044;-72
2024/02/11 04:17:13;;;;;;;46.47;26.50;;;;;;;-146.27;96.12;40323.41;5070333;28;20503;-71
2024/02/11 04:19:44;;;;;;;44.88;26.50;;;;;;;-146.27;96.11;40289.59;5069395;28;20081;-70
2024/02/11 04:22:14;;;;;;;40.97;25.08;;;;;;;-146.27;96.10;40305.50;5069969;28;20079;-71
2024/02/11 04:24:45;;;;;;;41.45;25.63;;;;;;;-146.27;96.07;40327.38;5067720;28;20081;-72
2024/02/11 04:27:14;;;;;;;43.50;25.55;;;;;;;-146.27;96.12;40309.47;5066665;28;20063;-71
2024/02/11 04:29:40;;;;;;;44.97;26.23;;;;;;;-146.27;96.26;40289.59;5071408;28;20025;-71
2024/02/11 04:32:05;;;;;;;44.83;25.98;;;;;;;-146.27;96.42;40265.75;5069603;28;20403;-71
2024/02/11 04:34:31;;;;;;;43.55;25.40;;;;;;;-146.27;96.35;40257.81;5068311;28;20032;-70
2024/02/11 04:36:56;;;;;;;45.92;25.35;;;;;;;-146.27;96.44;40208.09;5066738;28;20028;-71
2024/02/11 04:39:21;;;;;;;43.95;24.85;;;;;;;-146.27;96.39;40210.09;5069750;28;20505;-72
2024/02/11 04:41:47;;;;;;;43.65;24.33;;;;;;;-146.27;96.44;40196.19;5071340;28;20028;-70
2024/02/11 04:44:12;;;;;;;46.53;25.15;;;;;;;-146.27;96.39;40206.13;5067741;28;20110;-71
2024/02/11 04:46:39;;;;;;;44.17;25.42;;;;;;;-146.27;96.40;40206.13;5068623;28;20115;-72
2024/02/11 04:49:05;;;;;;;40.75;24.50;;;;;;;-146.27;96.35;40224.00;5069144;28;20089;-72
2024/02/11 04:51:30;;;;;;;43.63;23.63;;;;;;;-146.27;96.33;40226.00;5069575;28;20429;-72
2024/02/11 04:53:59;;;;;;;42.97;24.27;;;;;;;-146.27;96.40;40188.22;5068783;28;20531;-71
2024/02/11 04:56:28;;;;;;;43.63;24.08;;;;;;;-146.27;96.46;40210.09;5067198;28;20431;-71
2024/02/11 04:58:54;;;;;;;44.10;23.65;;;;;;;-146.27;96.76;40182.28;5067303;28;20032;-72
2024/02/11 05:01:20;;;;;;;36.78;19.23;;;;;;;-146.27;97.00;40186.25;5068450;28;20346;-71
2024/02/11 05:03:47;;;;;;;26.35;14.95;;;;;;;-146.27;97.32;40216.06;5070829;28;20396;-71
2024/02/11 05:06:18;;;;;;;25.33;13.75;;;;;;;-146.27;97.43;40126.63;5069073;28;20064;-71
2024/02/11 05:08:47;;;;;;;24.35;13.40;;;;;;;-146.27;96.46;40229.97;5070523;28;20116;-71
2024/02/11 05:11:13;;;;;;;20.23;11.45;;;;;;;-146.27;97.21;40305.50;5069205;28;20228;-71
2024/02/11 05:13:38;;;;;;;20.90;11.40;;;;;;;-146.27;97.00;40265.75;5067023;28;20526;-71
2024/02/11 05:16:05;;;;;;;23.65;11.40;;;;;;;-146.27;96.53;40245.88;5069561;28;20059;-71
2024/02/11 05:18:32;;;;;;;22.70;12.32;;;;;;;-146.27;96.54;40367.13;5069237;28;20032;-71
2024/02/11 05:20:58;;;;;;;22.90;10.57;;;;;;;-146.27;97.55;40373.09;5066753;28;20488;-71
2024/02/11 05:23:23;;;;;;;20.02;11.35;;;;;;;-146.27;97.07;40249.84;5069625;28;20079;-72
2024/02/11 05:25:50;;;;;;;21.40;10.25;;;;;;;-146.27;96.95;40373.09;5068037;28;20024;-71
2024/02/11 05:28:15;;;;;;;13.52;8.32;;;;;;;-146.27;96.94;40249.84;5067913;28;20037;-72
2024/02/11 05:30:45;;;;;;;16.83;8.13;;;;;;;-146.27;96.96;40309.47;5060029;28;20036;-73
2024/02/11 05:33:18;;;;;;;13.65;7.20;;;;;;;-146.27;97.06;40325.38;5063508;28;20055;-72
2024/02/11 05:35:44;;;;;;;12.95;7.40;;;;;;;-146.27;96.79;40343.28;5069263;28;20078;-71
2024/02/11 05:38:10;;;;;;;11.82;6.60;;;;;;;-146.27;96.20;40420.78;5057468;28;20489;-71
2024/02/11 05:40:41;;;;;;;9.60;7.00;;;;;;;-146.27;96.36;40444.66;5073693;28;20103;-72
2024/02/11 05:43:08;;;;;;;12.05;7.22;;;;;;;-146.27;97.03;40319.41;5069565;28;20036;-72
2024/02/11 05:45:34;;;;;;;17.88;7.22;;;;;;;-146.27;96.54;40317.44;5069727;28;20052;-72
2024/02/11 05:47:59;;;;;;;15.15;6.82;;;;;;;-146.27;97.32;40251.84;5071663;28;20067;-70
2024/02/11 05:50:27;;;;;;;15.73;7.18;;;;;;;-146.27;96.63;40239.91;5073373;28;20039;-69
2024/02/11 05:52:54;;;;;;;14.25;8.88;;;;;;;-146.27;96.79;40271.72;5071116;28;20020;-72
2024/02/11 05:55:20;;;;;;;19.05;8.95;;;;;;;-146.27;96.49;40418.81;5073447;28;20440;-71
2024/02/11 05:57:48;;;;;;;17.25;8.95;;;;;;;-146.27;96.22;40349.22;5073126;28;20029;-72
2024/02/11 06:00:18;;;;;;;16.63;8.10;;;;;;;-146.27;95.82;40488.38;5072311;28;20043;-71
2024/02/11 06:02:46;;;;;;;11.05;7.60;;;;;;;-146.27;95.63;40500.31;5071000;28;20130;-70
2024/02/11 06:05:13;;;;;;;16.95;8.55;;;;;;;-146.27;96.26;40466.50;5071793;28;20067;-70
2024/02/11 06:07:54;;;;;;;14.73;7.38;;;;;;;-146.27;95.53;40508.25;5071909;28;20364;-70
2024/02/11 06:10:22;;;;;;;15.45;6.97;;;;;;;-146.27;94.89;40627.50;5068094;28;20099;-71
2024/02/11 06:12:48;;;;;;;17.35;6.63;;;;;;;-146.27;95.22;40695.09;5069644;28;20017;-70
2024/02/11 06:15:16;;;;;;;12.13;6.40;;;;;;;-146.27;95.33;40575.84;5070832;28;20473;-70
2024/02/11 06:17:41;;;;;;;14.93;6.10;;;;;;;-146.27;95.04;40651.38;5071850;28;20528;-70
2024/02/11 06:20:13;;;;;;;13.93;5.93;;;;;;;-146.27;95.51;40726.91;5068698;28;20030;-70
2024/02/11 06:22:40;;;;;;;16.80;6.13;;;;;;;-146.27;95.85;40520.19;5069877;28;20131;-71
2024/02/11 06:25:05;;;;;;;12.38;5.65;;;;;;;-146.27;97.13;40323.41;5063207;28;20121;-72
2024/02/11 06:27:32;;;;;;;17.88;6.18;;;;;;;-146.27;95.97;40420.78;5071810;28;20123;-71
2024/02/11 06:29:57;;;;;;;17.85;5.20;;;;;;;-146.27;96.30;40412.84;5071229;28;20167;-70
2024/02/11 06:32:23;;;;;;;14.30;5.00;;;;;;;-146.27;96.06;40404.88;5071540;28;20103;-70
2024/02/11 06:34:49;;;;;;;13.68;5.05;;;;;;;-146.27;97.21;40325.38;5068797;28;20032;-72
2024/02/11 06:37:15;;;;;;;17.35;4.90;;;;;;;-146.27;96.95;40156.44;5068966;28;20508;-70
2024/02/11 06:39:41;;;;;;;14.25;4.03;;;;;;;-146.27;96.46;40202.16;5059739;28;20067;-70
2024/02/11 06:42:09;;;;;;;10.95;4.05;;;;;;;-146.27;96.18;40214.06;5069716;28;20056;-70
2024/02/11 06:44:38;;;;;;;11.77;4.32;;;;;;;-146.27;95.37;40365.13;5072015;28;20039;-70
2024/02/11 06:47:14;;;;;;;8.18;3.33;;;;;;;-146.27;96.30;40267.75;5071150;28;20428;-71
2024/02/11 06:49:39;;;;;;;9.90;3.10;;;;;;;-146.27;96.08;40261.78;5075540;28;20036;-70
2024/02/11 06:52:09;;;;;;;8.85;2.55;;;;;;;-146.27;95.81;40297.56;5070692;28;20489;-70
2024/02/11 06:54:35;;;;;;;14.98;3.67;;;;;;;-146.27;95.68;40369.09;5071629;28;20082;-70
2024/02/11 06:57:01;;;;;;;14.52;3.00;;;;;;;-146.27;95.49;40351.22;5070531;28;20020;-72
2024/02/11 06:59:26;;;;;;;10.05;3.13;;;;;;;-146.27;95.79;40345.25;5070189;28;20029;-72
2024/02/11 07:01:57;;;;;;;11.77;2.92;;;;;;;-146.27;96.28;40241.91;5066934;28;20556;-73
2024/02/11 07:04:23;;;;;;;13.45;3.40;;;;;;;-146.27;96.49;40178.28;5069175;28;20404;-72
2024/02/11 07:06:53;;;;;;;17.50;3.53;;;;;;;-146.27;95.31;40329.34;5072144;28;20240;-72
2024/02/11 07:09:22;;;;;;;12.80;3.05;;;;;;;-146.27;95.26;40353.22;5071019;28;20162;-73
2024/02/11 07:11:51;;;;;;;12.10;3.92;;;;;;;-146.27;95.11;40458.56;5069253;28;20487;-73
2024/02/11 07:14:18;;;;;;;17.67;3.50;;;;;;;-146.27;95.37;40402.91;5070114;28;20016;-72
2024/02/11 07:16:43;;;;;;;18.23;3.72;;;;;;;-146.27;96.15;40297.56;5071115;28;20484;-72
2024/02/11 07:19:10;;;;;;;13.98;4.32;;;;;;;-146.27;95.57;40353.22;5069066;28;20028;-72
2024/02/11 07:21:37;;;;;;;14.00;4.57;;;;;;;-146.27;95.45;40389.00;5071538;28;20541;-72
2024/02/11 07:24:08;;;;;;;13.00;4.88;;;;;;;-146.27;95.92;40404.88;5070050;28;20043;-72
2024/02/11 07:26:38;;;;;;;18.88;6.25;;;;;;;-146.27;96.20;40178.28;5071174;28;20039;-72
2024/02/11 07:29:04;;;;;;;19.23;6.85;;;;;;;-146.27;95.90;40253.81;5071140;28;20025;-72
2024/02/11 07:31:30;;;;;;;18.42;7.57;;;;;;;-146.27;97.23;40047.13;5068982;28;20028;-73
2024/02/11 07:33:55;;;;;;;20.75;7.15;;;;;;;-146.27;96.44;40138.53;5069726;28;20032;-72
2024/02/11 07:36:24;;;;;;;31.23;7.70;;;;;;;-146.27;96.31;40247.88;5071329;28;20027;-72
2024/02/11 07:38:51;;;;;;;25.90;8.82;;;;;;;-146.27;96.17;40303.50;5070048;28;20081;-72
2024/02/11 07:41:18;;;;;;;26.88;8.90;;;;;;;-146.27;95.78;40412.84;5071714;28;20016;-73
2024/02/11 07:43:44;;;;;;;31.23;11.05;;;;;;;-146.27;95.77;40385.00;5072168;28;20028;-74
2024/02/11 07:46:13;;;;;;;35.50;10.55;;;;;;;-146.27;95.31;40492.34;5070962;28;20031;-71
2024/02/11 07:48:39;;;;;;;25.55;10.35;;;;;;;-146.27;95.04;40555.97;5068187;28;20028;-72
2024/02/11 07:51:06;;;;;;;32.35;11.38;;;;;;;-146.27;95.99;40446.63;5072436;28;20164;-72
2024/02/11 07:53:31;;;;;;;28.23;11.50;;;;;;;-146.27;95.45;40534.09;5078349;28;20112;-72
2024/02/11 07:55:57;;;;;;;32.63;11.68;;;;;;;-146.27;95.84;40416.81;5069432;28;20505;-73
2024/02/11 07:58:23;;;;;;;38.72;12.13;;;;;;;-146.27;95.52;40369.09;5076610;28;20019;-73
2024/02/11 08:00:49;;;;;;;29.67;11.75;;;;;;;-146.27;95.55;40365.13;5074729;28;20047;-71
2024/02/11 08:03:14;;;;;;;26.40;11.93;;;;;;;-146.27;95.18;40385.00;5068239;28;20025;-72
2024/02/11 08:05:40;;;;;;;36.05;13.18;;;;;;;-146.27;94.87;40414.81;5066921;28;20716;-74
2024/02/11 08:08:06;;;;;;;39.53;13.38;;;;;;;-146.27;94.88;40392.97;5067635;28;20032;-72
2024/02/11 08:10:32;;;;;;;39.22;13.60;;;;;;;-146.27;94.60;40488.38;5068485;28;20033;-72
2024/02/11 08:12:58;;;;;;;25.63;12.93;;;;;;;-146.27;94.69;40456.56;5068579;28;20404;-72
2024/02/11 08:15:23;;;;;;;37.65;14.13;;;;;;;-146.27;94.55;40506.25;5070260;28;20028;-72
2024/02/11 08:17:49;;;;;;;26.77;11.82;;;;;;;-146.27;94.70;40540.06;5068939;28;20041;-71
2024/02/11 08:20:21;;;;;;;29.38;11.95;;;;;;;-146.27;95.09;40565.91;5068054;28;20066;-72
2024/02/11 08:22:46;;;;;;;41.83;13.10;;;;;;;-146.27;94.74;40500.31;5069635;28;20520;-72
2024/02/11 08:25:13;;;;;;;28.65;12.75;;;;;;;-146.27;94.43;40643.41;5070312;28;20020;-72
2024/02/11 08:27:39;;;;;;;29.98;12.00;;;;;;;-146.27;94.34;40615.59;5072386;28;20050;-72
2024/02/11 08:30:10;;;;;;;30.73;11.23;;;;;;;-146.27;94.24;40707.03;5075069;28;20055;-72
2024/02/11 08:32:36;;;;;;;35.75;12.18;;;;;;;-146.27;94.08;40802.44;5079593;28;20028;-72
2024/02/11 08:35:05;;;;;;;30.73;12.25;;;;;;;-146.27;94.63;40866.06;5079222;28;20024;-73
2024/02/11 08:37:31;;;;;;;27.95;11.00;;;;;;;-146.27;94.43;40734.84;5079148;28;20024;-73
2024/02/11 08:39:58;;;;;;;26.52;10.88;;;;;;;-146.27;93.98;40752.75;5068742;28;20037;-73
2024/02/11 08:42:23;;;;;;;23.08;9.80;;;;;;;-146.27;93.65;40790.53;5064712;28;20037;-73
2024/02/11 08:44:48;;;;;;;26.70;9.60;;;;;;;-146.27;93.59;40862.09;5065838;28;20032;-73
2024/02/11 08:47:14;;;;;;;28.90;9.43;;;;;;;-146.27;93.59;40889.91;5067878;28;20025;-73
2024/02/11 08:49:41;;;;;;;20.60;8.23;;;;;;;-146.27;94.13;40864.06;5069273;28;20063;-73
2024/02/11 08:52:06;;;;;;;27.73;8.30;;;;;;;-146.27;94.35;40651.38;5068220;28;20032;-74
2024/02/11 08:54:34;;;;;;;28.48;8.60;;;;;;;-146.27;93.63;40675.22;5067981;28;20028;-72
2024/02/11 08:57:00;;;;;;;23.30;8.32;;;;;;;-146.27;93.42;40667.28;5072500;28;20024;-73
2024/02/11 08:59:26;;;;;;;25.27;7.63;;;;;;;-146.27;93.03;40738.84;5076352;28;20504;-73
2024/02/11 09:01:55;;;;;;;22.55;8.13;;;;;;;-146.27;92.91;40838.22;5074651;28;20110;-74
2024/02/11 09:04:21;;;;;;;19.13;8.05;;;;;;;-146.27;92.71;40850.16;5072521;28;20105;-74
2024/02/11 09:06:49;;;;;;;25.38;8.15;;;;;;;-146.27;92.58;40959.50;5079407;28;20081;-74
2024/02/11 09:09:14;;;;;;;18.58;8.52;;;;;;;-146.27;93.19;40995.28;5072392;28;20776;-74
2024/02/11 09:11:40;;;;;;;19.92;8.57;;;;;;;-146.27;92.93;40929.69;5070682;28;20040;-73
2024/02/11 09:14:05;;;;;;;22.38;8.45;;;;;;;-146.27;92.45;41033.06;5064529;28;20032;-74
2024/02/11 09:16:31;;;;;;;23.65;9.00;;;;;;;-146.27;92.76;40949.56;5066908;28;20472;-72
2024/02/11 09:18:57;;;;;;;18.02;8.82;;;;;;;-146.27;92.65;40979.38;5077396;28;20167;-73
2024/02/11 09:21:23;;;;;;;22.08;9.85;;;;;;;-146.27;92.51;41056.91;5061759;28;20508;-73
2024/02/11 09:23:49;;;;;;;21.02;9.82;;;;;;;-146.27;92.23;41011.19;5066940;28;20044;-73
2024/02/11 09:26:15;;;;;;;22.65;10.23;;;;;;;-146.27;91.57;41124.50;5068801;28;20033;-72
2024/02/11 09:28:42;;;;;;;22.05;11.40;;;;;;;-146.27;91.60;41168.25;5068250;28;20029;-73
2024/02/11 09:31:10;;;;;;;29.15;12.13;;;;;;;-146.27;91.99;41164.25;5069197;28;20483;-72
2024/02/11 09:33:38;;;;;;;33.33;13.82;;;;;;;-146.27;91.71;41120.53;5069214;28;20470;-73
2024/02/11 09:36:06;;;;;;;29.55;13.23;;;;;;;-146.27;91.60;41217.94;5069074;28;20028;-74
2024/02/11 09:38:31;;;;;;;36.78;13.93;;;;;;;-146.27;91.49;41287.53;5065545;28;20467;-72
2024/02/11 09:40:57;;;;;;;29.80;13.35;;;;;;;-146.27;92.33;41305.41;5068005;28;20024;-73
2024/02/11 09:43:23;;;;;;;32.45;13.57;;;;;;;-146.27;91.98;41378.97;5061048;28;20038;-72
2024/02/11 09:45:52;;;;;;;27.92;13.30;;;;;;;-146.27;92.59;41221.91;5059504;28;20028;-73
2024/02/11 09:48:17;;;;;;;31.42;14.05;;;;;;;-146.27;91.53;41343.19;5072206;28;20028;-72
2024/02/11 09:50:44;;;;;;;27.60;12.98;;;;;;;-146.27;90.89;41470.44;5070613;28;20025;-72
2024/02/11 09:53:14;;;;;;;36.03;12.77;;;;;;;-146.27;91.45;41462.50;5067017;28;20025;-73
2024/02/11 09:55:42;;;;;;;22.98;11.77;;;;;;;-146.27;91.52;41506.22;5068297;28;20044;-73
2024/02/11 09:58:08;;;;;;;20.83;10.95;;;;;;;-146.27;91.18;41589.75;5065748;28;20094;-73
2024/02/11 10:00:33;;;;;;;31.60;11.75;;;;;;;-146.27;90.74;41573.84;5069995;28;20033;-73
2024/02/11 10:03:02;;;;;;;24.98;11.23;;;;;;;-146.27;90.65;41718.97;5070880;28;20496;-73
2024/02/11 10:05:31;;;;;;;25.13;12.25;;;;;;;-146.27;90.02;41943.66;5069205;28;20378;-74
2024/02/11 10:07:58;;;;;;;26.05;11.27;;;;;;;-146.27;90.20;35669.06;5066988;28;21093;-73
2024/02/11 10:10:25;;;;;;;22.27;12.18;;;;;;;-146.27;90.29;34362.94;5055419;28;20033;-73
2024/02/11 10:12:51;;;;;;;27.73;11.68;;;;;;;-146.27;89.67;36616.16;5067363;28;20078;-73
2024/02/11 10:15:19;;;;;;;32.45;12.95;;;;;;;-146.27;89.72;38993.88;5069848;28;20028;-73
2024/02/11 10:17:46;;;;;;;29.15;13.88;;;;;;;-146.27;89.33;31224.47;5071114;28;20024;-73
2024/02/11 10:20:12;;;;;;;20.15;11.80;;;;;;;-146.27;89.03;34259.75;5081762;28;20111;-73
2024/02/11 10:22:38;;;;;;;35.38;14.07;;;;;;;-146.27;89.16;31518.00;5067742;28;20576;-71
2024/02/11 10:25:08;;;;;;;31.40;12.35;;;;;;;-146.27;89.04;32212.16;5071193;28;20115;-73
2024/02/11 10:27:34;;;;;;;31.10;12.77;;;;;;;-146.27;88.74;34255.78;5075157;28;20031;-73
2024/02/11 10:29:59;;;;;;;25.50;12.32;;;;;;;-146.27;88.86;33581.06;5087707;28;20114;-72
2024/02/11 10:32:24;;;;;;;27.85;12.38;;;;;;;-146.27;88.81;33924.34;5073918;28;20537;-73
2024/02/11 10:34:50;;;;;;;23.48;11.70;;;;;;;-146.27;88.62;33791.41;5084307;28;20111;-71
2024/02/11 10:37:15;;;;;;;21.13;11.80;;;;;;;-146.27;88.18;35559.88;5079773;28;20032;-72
2024/02/11 10:39:44;;;;;;;25.75;12.55;;;;;;;-146.27;87.78;37613.16;5072746;28;20024;-72
2024/02/11 10:42:13;;;;;;;28.85;13.15;;;;;;;-146.27;87.52;36677.72;5072050;28;20099;-72
2024/02/11 10:44:39;;;;;;;27.48;13.32;;;;;;;-146.27;86.92;36135.63;5078432;28;20032;-72
2024/02/11 10:47:08;;;;;;;28.35;14.60;;;;;;;-146.27;87.08;35970.84;5067261;28;20035;-73
2024/02/11 10:49:34;;;;;;;29.67;14.13;;;;;;;-146.27;87.23;35581.69;5068535;28;20024;-73
2024/02/11 10:52:06;;;;;;;33.95;14.60;;;;;;;-146.27;86.57;35605.53;5073201;28;20029;-72
2024/02/11 10:54:41;;;;;;;30.50;13.65;;;;;;;-146.27;86.92;35617.44;5076685;28;20061;-73
2024/02/11 10:57:12;;;;;;;28.77;16.20;;;;;;;-146.27;87.36;34940.50;5079216;28;20511;-74
2024/02/11 10:59:42;;;;;;;26.98;15.82;;;;;;;-146.27;86.80;34678.50;5081751;28;20028;-71
2024/02/11 11:02:11;;;;;;;30.95;14.65;;;;;;;-146.27;87.10;34698.38;5072610;28;20051;-74